This is the latest recevied weather packets stored in our database for station/object FW9167. If no packets are shown the sender has not sent any weather packets the latest 10 day(s).
| Time | Temp. | Humidity | Pressure | Rain* | Wind** | Luminosity | Snow |
|---|---|---|---|---|---|---|---|
| 1778247962 | 9.44° C | 62% | 1017.4 hPa | 0 mm | - | - | - |
| 1778246162 | 6.11° C | 70% | 1017.2 hPa | 0 mm | - | - | - |
| 1778239862 | 4.44° C | 73% | 1016.7 hPa | 0 mm | - | - | - |
| 1778238063 | 5.56° C | 69% | 1016.6 hPa | 0 mm | - | - | - |
| 1778237162 | 5.56° C | 69% | 1016.6 hPa | 0 mm | - | - | - |
| 1778235362 | 6.11° C | 68% | 1016.3 hPa | 0 mm | - | - | - |
| 1778232662 | 9.44° C | 57% | 1016.1 hPa | 0 mm | - | - | - |
| 1778231762 | 9.44° C | 57% | 1016 hPa | 0 mm | - | - | - |
| 1778229962 | 10.56° C | 54% | 1016 hPa | 0 mm | - | - | - |
| 1778223662 | 12.22° C | 50% | 1015.9 hPa | 0 mm | - | - | - |
| 1778210163 | 15.56° C | 46% | 1014.4 hPa | 0 mm | - | - | - |
| 1778209263 | 17.22° C | 45% | 1014.2 hPa | 0 mm | - | - | - |
| 1778206565 | 21.67° C | 31% | 1013.7 hPa | 0 mm | - | - | - |
| 1778201162 | 23.89° C | 24% | 1013.2 hPa | 0 mm | - | - | - |
| 1778198463 | 23.89° C | 24% | 1013.3 hPa | 0 mm | - | - | - |
| 1778193963 | 23.89° C | 25% | 1013.7 hPa | 0 mm | - | - | - |
| 1778186762 | 22.78° C | 35% | 1015.1 hPa | 0 mm | - | - | - |
| 1778179562 | 20.56° C | 39% | 1016.2 hPa | 0 mm | - | - | - |
| 1778176864 | 19.44° C | 42% | 1016.4 hPa | 0 mm | - | - | - |
| 1778175062 | 19.44° C | 44% | 1016.6 hPa | 0 mm | - | - | - |
| 1778173263 | 18.89° C | 40% | 1016.8 hPa | 0 mm | - | - | - |
| 1778172362 | 18.33° C | 42% | 1016.9 hPa | 0 mm | - | - | - |
| 1778161562 | 10.56° C | 68% | 1016.4 hPa | 0 mm | - | - | - |
| 1778157962 | 8.33° C | 69% | 1016.1 hPa | 0 mm | - | - | - |
| 1778156165 | 8.89° C | 64% | 1016 hPa | 0 mm | - | - | - |
* Rain since midnight (hover to see other rain measurements)
** Current wind speed in m/s (hover to see current wind gust speed)